createdAt,value
2022-12-12T00:00:34.400Z,-1.88
2022-12-12T00:03:02.191Z,-1.92
2022-12-12T00:05:28.744Z,-1.98
2022-12-12T00:07:55.716Z,-2.00
2022-12-12T00:10:22.227Z,-1.92
2022-12-12T00:12:48.635Z,-1.94
2022-12-12T00:15:15.807Z,-1.95
2022-12-12T00:17:42.656Z,-1.92
2022-12-12T00:20:10.122Z,-2.06
2022-12-12T00:22:37.615Z,-2.02
2022-12-12T00:25:05.205Z,-2.15
2022-12-12T00:27:33.702Z,-2.09
2022-12-12T00:30:00.627Z,-2.07
2022-12-12T00:32:28.238Z,-2.01
2022-12-12T00:34:54.822Z,-2.03
2022-12-12T00:37:21.405Z,-2.04
2022-12-12T00:39:48.709Z,-1.96
2022-12-12T00:42:15.486Z,-2.07
2022-12-12T00:44:42.517Z,-2.05
2022-12-12T00:47:09.085Z,-1.96
2022-12-12T00:49:35.711Z,-1.94
2022-12-12T00:52:02.232Z,-1.98
2022-12-12T00:54:29.421Z,-1.98
2022-12-12T00:56:56.093Z,-2.00
2022-12-12T00:59:22.846Z,-1.91
2022-12-12T01:01:49.401Z,-1.94
2022-12-12T01:04:16.024Z,-1.95
2022-12-12T01:06:42.536Z,-1.96
2022-12-12T01:09:09.000Z,-1.95
2022-12-12T01:11:35.874Z,-1.90
2022-12-12T01:14:02.594Z,-1.98
2022-12-12T01:16:29.446Z,-2.04
2022-12-12T01:18:55.985Z,-2.02
2022-12-12T01:21:22.708Z,-2.02
2022-12-12T01:23:49.433Z,-1.92
2022-12-12T01:26:19.298Z,-1.94
2022-12-12T01:28:46.364Z,-1.82
2022-12-12T01:31:13.060Z,-1.90
2022-12-12T01:33:40.155Z,-1.90
2022-12-12T01:36:06.967Z,-1.85
2022-12-12T01:38:33.534Z,-1.91
2022-12-12T01:41:00.155Z,-1.79
2022-12-12T01:43:27.932Z,-1.79
2022-12-12T01:45:57.391Z,-1.92
2022-12-12T01:48:30.633Z,-1.87
2022-12-12T01:50:59.874Z,-1.89
2022-12-12T01:53:27.454Z,-1.87
2022-12-12T01:55:54.304Z,-1.83
2022-12-12T01:58:20.893Z,-1.83
2022-12-12T02:00:47.522Z,-1.84
2022-12-12T02:03:14.117Z,-1.84
2022-12-12T02:05:48.018Z,-1.81
2022-12-12T02:08:16.317Z,-1.88
2022-12-12T02:10:44.733Z,-1.78
2022-12-12T02:13:15.503Z,-1.83
2022-12-12T02:15:44.852Z,-1.85
2022-12-12T02:18:35.523Z,-1.90
2022-12-12T02:21:02.263Z,-1.82
2022-12-12T02:23:46.459Z,-1.84
2022-12-12T02:26:49.193Z,-1.78
2022-12-12T02:29:25.685Z,-1.83
2022-12-12T02:32:00.404Z,-1.78
2022-12-12T02:34:36.178Z,-1.97
2022-12-12T02:37:27.464Z,-1.88
2022-12-12T02:40:10.450Z,-1.95
2022-12-12T02:42:55.613Z,-1.93
2022-12-12T02:45:35.590Z,-1.99
2022-12-12T02:48:11.420Z,-2.09
2022-12-12T02:50:39.253Z,-1.97
2022-12-12T02:53:06.461Z,-1.97
2022-12-12T02:55:36.439Z,-1.92
2022-12-12T02:58:05.000Z,-1.97
2022-12-12T03:00:40.390Z,-1.95
2022-12-12T03:03:28.165Z,-1.94
2022-12-12T03:06:48.952Z,-1.81
2022-12-12T03:09:21.315Z,-1.88
2022-12-12T03:11:57.040Z,-1.93
2022-12-12T03:14:37.307Z,-1.97
2022-12-12T03:17:36.533Z,-1.99
2022-12-12T03:20:18.122Z,-1.93
2022-12-12T03:22:46.631Z,-1.95
2022-12-12T03:25:20.505Z,-1.95
2022-12-12T03:28:06.336Z,-2.00
2022-12-12T03:30:39.034Z,-1.96
2022-12-12T03:33:17.862Z,-1.93
2022-12-12T03:35:47.625Z,-1.95
2022-12-12T03:38:28.584Z,-1.90
2022-12-12T03:40:58.259Z,-1.86
2022-12-12T03:43:45.302Z,-1.88
2022-12-12T03:46:22.831Z,-1.84
2022-12-12T03:49:14.620Z,-1.85
2022-12-12T03:51:45.430Z,-1.86
2022-12-12T03:54:19.785Z,-1.81
2022-12-12T03:57:14.551Z,-1.77
2022-12-12T03:59:48.053Z,-1.81
2022-12-12T04:02:19.027Z,-1.69
2022-12-12T04:04:55.146Z,-1.67
2022-12-12T04:07:29.761Z,-1.89
2022-12-12T04:10:14.798Z,-1.90
2022-12-12T04:13:03.617Z,-1.97
2022-12-12T04:15:52.720Z,-1.95
2022-12-12T04:18:56.710Z,-1.89
2022-12-12T04:22:11.106Z,-1.89
2022-12-12T04:24:48.657Z,-1.96
2022-12-12T04:27:22.437Z,-1.92
2022-12-12T04:29:55.001Z,-1.86
2022-12-12T04:32:28.744Z,-1.87
2022-12-12T04:35:01.640Z,-1.78
2022-12-12T04:37:32.782Z,-1.85
2022-12-12T04:40:01.046Z,-1.79
2022-12-12T04:42:32.429Z,-1.88
2022-12-12T04:45:05.333Z,-1.83
2022-12-12T04:47:32.110Z,-1.75
2022-12-12T04:50:00.299Z,-1.75
2022-12-12T04:52:27.767Z,-1.74
2022-12-12T04:55:00.869Z,-1.74
2022-12-12T04:57:31.957Z,-1.73
2022-12-12T04:59:58.534Z,-1.79
2022-12-12T05:02:34.988Z,-1.81
2022-12-12T05:05:25.555Z,-1.71
2022-12-12T05:08:03.611Z,-1.63
2022-12-12T05:10:30.135Z,-1.70
2022-12-12T05:13:00.974Z,-1.65
2022-12-12T05:15:28.902Z,-1.64
2022-12-12T05:18:02.144Z,-1.76
2022-12-12T05:20:29.044Z,-1.74
2022-12-12T05:22:55.504Z,-1.68
2022-12-12T05:25:21.952Z,-1.55
2022-12-12T05:27:48.422Z,-1.68
2022-12-12T05:30:15.054Z,-1.68
2022-12-12T05:32:41.750Z,-1.69
2022-12-12T05:35:09.248Z,-1.66
2022-12-12T05:37:35.781Z,-1.61
2022-12-12T05:40:02.550Z,-1.63
2022-12-12T05:42:29.366Z,-1.55
2022-12-12T05:44:56.093Z,-1.49
2022-12-12T05:47:22.772Z,-1.52
2022-12-12T05:49:49.194Z,-1.49
2022-12-12T05:52:15.671Z,-1.57
2022-12-12T05:54:42.181Z,-1.61
2022-12-12T05:57:09.194Z,-1.64
2022-12-12T05:59:35.911Z,-1.64
2022-12-12T06:02:02.517Z,-1.64
2022-12-12T06:04:29.091Z,-1.72
2022-12-12T06:06:55.670Z,-1.60
2022-12-12T06:09:22.121Z,-1.63
2022-12-12T06:11:48.591Z,-1.68
2022-12-12T06:14:15.028Z,-1.70
2022-12-12T06:16:41.486Z,-1.66
2022-12-12T06:19:08.033Z,-1.65
2022-12-12T06:21:34.518Z,-1.63
2022-12-12T06:24:00.973Z,-1.55
2022-12-12T06:26:27.771Z,-1.59
2022-12-12T06:28:55.540Z,-1.50
2022-12-12T06:31:22.073Z,-1.57
2022-12-12T06:33:48.818Z,-1.50
2022-12-12T06:36:23.797Z,-1.51
2022-12-12T06:38:55.881Z,-1.45
2022-12-12T06:41:23.439Z,-1.59
2022-12-12T06:43:50.403Z,-1.70
2022-12-12T06:46:19.703Z,-1.51
2022-12-12T06:48:46.468Z,-1.68
2022-12-12T06:51:21.929Z,-1.59
2022-12-12T06:53:49.028Z,-1.57
2022-12-12T06:56:18.287Z,-1.57
2022-12-12T06:58:44.833Z,-1.48
2022-12-12T07:01:21.667Z,-1.51
2022-12-12T07:03:49.661Z,-1.60
2022-12-12T07:06:17.528Z,-1.57
2022-12-12T07:08:44.320Z,-1.54
2022-12-12T07:11:13.572Z,-1.55
2022-12-12T07:13:40.065Z,-1.59
2022-12-12T07:16:07.532Z,-1.52
2022-12-12T07:18:34.120Z,-1.41
2022-12-12T07:21:05.132Z,-1.47
2022-12-12T07:23:31.797Z,-1.46
2022-12-12T07:25:58.456Z,-1.50
2022-12-12T07:28:24.951Z,-1.55
2022-12-12T07:30:51.533Z,-1.61
2022-12-12T07:33:18.063Z,-1.60
2022-12-12T07:35:44.943Z,-1.53
2022-12-12T07:38:11.768Z,-1.61
2022-12-12T07:40:38.775Z,-1.55
2022-12-12T07:43:05.317Z,-1.55
2022-12-12T07:45:31.820Z,-1.52
2022-12-12T07:47:58.271Z,-1.52
2022-12-12T07:50:24.990Z,-1.57
2022-12-12T07:52:51.451Z,-1.59
2022-12-12T07:55:18.247Z,-1.62
2022-12-12T07:57:44.804Z,-1.56
2022-12-12T08:00:14.903Z,-1.57
2022-12-12T08:02:41.525Z,-1.62
2022-12-12T08:05:08.437Z,-1.60
2022-12-12T08:07:34.920Z,-1.57
2022-12-12T08:10:01.473Z,-1.48
2022-12-12T08:12:31.804Z,-1.43
2022-12-12T08:14:58.294Z,-1.43
2022-12-12T08:17:25.174Z,-1.52
2022-12-12T08:19:51.846Z,-1.44
2022-12-12T08:22:18.592Z,-1.55
2022-12-12T08:24:45.150Z,-1.43
2022-12-12T08:27:15.567Z,-1.55
2022-12-12T08:29:43.465Z,-1.55
2022-12-12T08:32:10.235Z,-1.51
2022-12-12T08:34:36.779Z,-1.33
2022-12-12T08:37:03.387Z,-1.29
2022-12-12T08:39:29.886Z,-1.35
2022-12-12T08:41:56.483Z,-1.32
2022-12-12T08:44:22.979Z,-1.15
2022-12-12T08:46:50.016Z,-1.11
2022-12-12T08:49:16.542Z,-1.19
2022-12-12T08:51:43.388Z,-1.21
2022-12-12T08:54:12.365Z,-1.22
2022-12-12T08:56:39.464Z,-1.30
2022-12-12T08:59:06.022Z,-1.29
2022-12-12T09:01:32.992Z,-1.17
2022-12-12T09:03:59.486Z,-1.19
2022-12-12T09:06:26.458Z,-1.23
2022-12-12T09:08:53.560Z,-1.00
2022-12-12T09:11:20.142Z,-0.95
2022-12-12T09:13:46.721Z,-0.95
2022-12-12T09:16:13.538Z,-0.83
2022-12-12T09:18:46.342Z,-0.87
2022-12-12T09:21:15.459Z,-0.89
2022-12-12T09:23:41.926Z,-0.88
2022-12-12T09:26:09.297Z,-0.67
2022-12-12T09:28:36.062Z,-0.70
2022-12-12T09:31:10.430Z,-0.75
2022-12-12T09:33:36.999Z,-0.60
2022-12-12T09:36:06.346Z,-0.68
2022-12-12T09:38:33.784Z,-0.70
2022-12-12T09:41:09.225Z,-0.72
2022-12-12T09:44:00.657Z,-0.65
2022-12-12T09:46:35.344Z,-0.50
2022-12-12T09:49:12.688Z,-0.43
2022-12-12T09:51:40.164Z,-0.49
2022-12-12T09:54:06.777Z,-0.33
2022-12-12T09:57:00.496Z,-0.62
2022-12-12T09:59:39.174Z,-0.50
2022-12-12T10:02:12.951Z,-0.62
2022-12-12T10:04:50.766Z,-0.61
2022-12-12T10:07:45.107Z,-0.82
2022-12-12T10:10:24.975Z,-0.76
2022-12-12T10:12:52.348Z,-0.64
2022-12-12T10:15:40.696Z,-0.70
2022-12-12T10:18:18.910Z,-0.74
2022-12-12T10:20:48.896Z,-0.87
2022-12-12T10:23:41.492Z,-0.76
2022-12-12T10:26:19.630Z,-0.79
2022-12-12T10:28:49.878Z,-0.68
2022-12-12T10:31:52.575Z,-0.88
2022-12-12T10:34:40.813Z,-0.66
2022-12-12T10:37:26.044Z,-0.81
2022-12-12T10:40:09.937Z,-0.92
2022-12-12T10:42:41.423Z,-0.96
2022-12-12T10:45:17.164Z,-0.93
2022-12-12T10:47:44.910Z,-0.82
2022-12-12T10:50:13.370Z,-0.93
2022-12-12T10:52:40.348Z,-1.05
2022-12-12T10:55:53.487Z,-0.92
2022-12-12T10:58:25.370Z,-0.83
2022-12-12T11:00:52.252Z,-0.65
2022-12-12T11:03:38.928Z,-0.70
2022-12-12T11:06:08.093Z,-0.87
2022-12-12T11:08:35.942Z,-0.60
2022-12-12T11:11:19.612Z,-0.53
2022-12-12T11:13:51.332Z,-0.48
2022-12-12T11:16:21.707Z,-0.58
2022-12-12T11:18:57.375Z,-0.54
2022-12-12T11:21:23.969Z,-0.59
2022-12-12T11:23:54.063Z,-0.60
2022-12-12T11:26:21.794Z,-0.50
2022-12-12T11:28:59.795Z,-0.58
2022-12-12T11:31:30.536Z,-0.66
2022-12-12T11:34:05.470Z,-0.63
2022-12-12T11:36:37.780Z,-0.65
2022-12-12T11:39:28.408Z,-0.63
2022-12-12T11:42:06.345Z,-0.52
2022-12-12T11:44:35.723Z,-0.60
2022-12-12T11:47:22.004Z,-0.50
2022-12-12T11:49:51.092Z,-0.66
2022-12-12T11:52:35.792Z,-0.54
2022-12-12T11:55:02.959Z,-0.59
2022-12-12T11:57:32.350Z,-0.61
2022-12-12T12:00:01.789Z,-0.52
2022-12-12T12:02:34.359Z,-0.46
2022-12-12T12:05:34.894Z,-0.53
2022-12-12T12:08:21.274Z,-0.40
2022-12-12T12:11:03.553Z,-0.49
2022-12-12T12:13:51.746Z,-0.51
2022-12-12T12:16:25.898Z,-0.41
2022-12-12T12:19:14.007Z,-0.52
2022-12-12T12:21:52.608Z,-0.39
2022-12-12T12:24:53.916Z,-0.36
2022-12-12T12:27:32.212Z,-0.27
2022-12-12T12:30:24.396Z,-0.32
2022-12-12T12:33:13.285Z,-0.32
2022-12-12T12:35:42.818Z,-0.18
2022-12-12T12:38:28.239Z,0.00
2022-12-12T12:41:10.957Z,-0.04
2022-12-12T12:43:44.195Z,-0.10
2022-12-12T12:46:34.093Z,-0.04
2022-12-12T12:49:11.729Z,-0.11
2022-12-12T12:51:47.025Z,-0.09
2022-12-12T12:54:23.170Z,0.06
2022-12-12T12:57:00.459Z,-0.03
2022-12-12T12:59:34.581Z,-0.06
2022-12-12T13:02:04.895Z,-0.23
2022-12-12T13:04:37.088Z,-0.07
2022-12-12T13:07:14.132Z,-0.29
2022-12-12T13:09:51.619Z,-0.38
2022-12-12T13:12:43.554Z,-0.26
2022-12-12T13:15:26.980Z,-0.31
2022-12-12T13:18:05.341Z,-0.29
2022-12-12T13:20:54.478Z,-0.25
2022-12-12T13:23:33.151Z,-0.16
2022-12-12T13:26:54.007Z,-0.20
2022-12-12T13:29:46.776Z,-0.19
2022-12-12T13:32:19.747Z,-0.27
2022-12-12T13:34:48.976Z,-0.14
2022-12-12T13:37:18.889Z,-0.22
2022-12-12T13:39:46.018Z,-0.22
2022-12-12T13:42:13.847Z,-0.29
2022-12-12T13:44:48.683Z,-0.35
2022-12-12T13:47:18.157Z,-0.24
2022-12-12T13:49:55.541Z,-0.32
2022-12-12T13:52:30.046Z,-0.27
2022-12-12T13:55:19.662Z,-0.26
2022-12-12T13:58:08.150Z,-0.27
2022-12-12T14:00:39.090Z,-0.46
2022-12-12T14:03:11.953Z,-0.35
2022-12-12T14:05:47.182Z,-0.40
2022-12-12T14:08:13.744Z,-0.34
2022-12-12T14:10:52.747Z,-0.41
2022-12-12T14:13:22.241Z,-0.44
2022-12-12T14:15:58.121Z,-0.45
2022-12-12T14:18:50.666Z,-0.43
2022-12-12T14:21:19.784Z,-0.48
2022-12-12T14:23:51.626Z,-0.55
2022-12-12T14:26:27.492Z,-0.60
2022-12-12T14:29:15.886Z,-0.68
2022-12-12T14:31:50.404Z,-0.61
2022-12-12T14:34:23.468Z,-0.68
2022-12-12T14:37:07.280Z,-0.80
2022-12-12T14:39:42.886Z,-0.90
2022-12-12T14:42:19.816Z,-0.70
2022-12-12T14:44:50.688Z,-0.79
2022-12-12T14:47:17.882Z,-0.92
2022-12-12T14:49:44.632Z,-1.14
2022-12-12T14:52:19.814Z,-1.08
2022-12-12T14:54:46.373Z,-1.16
2022-12-12T14:57:20.457Z,-1.17
2022-12-12T14:59:47.006Z,-1.24
2022-12-12T15:02:31.527Z,-1.36
2022-12-12T15:05:05.025Z,-1.36
2022-12-12T15:07:34.308Z,-1.46
2022-12-12T15:10:00.884Z,-1.60
2022-12-12T15:12:33.792Z,-1.75
2022-12-12T15:15:01.184Z,-1.68
2022-12-12T15:17:30.429Z,-1.75
2022-12-12T15:20:01.771Z,-1.81
2022-12-12T15:22:28.264Z,-1.89
2022-12-12T15:24:56.112Z,-1.92
2022-12-12T15:27:40.207Z,-2.05
2022-12-12T15:30:33.593Z,-2.10
2022-12-12T15:33:00.918Z,-2.08
2022-12-12T15:35:27.756Z,-2.08
2022-12-12T15:37:59.252Z,-2.07
2022-12-12T15:40:35.650Z,-2.07
2022-12-12T15:43:05.423Z,-2.03
2022-12-12T15:45:34.770Z,-2.03
2022-12-12T15:48:02.527Z,-2.07
2022-12-12T15:50:44.218Z,-2.00
2022-12-12T15:53:19.826Z,-2.02
2022-12-12T15:55:55.171Z,-2.14
2022-12-12T15:58:29.518Z,-2.05
2022-12-12T16:01:20.280Z,-2.13
2022-12-12T16:04:06.583Z,-2.13
2022-12-12T16:06:41.388Z,-2.06
2022-12-12T16:09:10.902Z,-2.14
2022-12-12T16:11:43.411Z,-2.10
2022-12-12T16:14:38.631Z,-2.08
2022-12-12T16:17:18.136Z,-2.18
2022-12-12T16:20:04.641Z,-2.16
2022-12-12T16:22:42.476Z,-2.18
2022-12-12T16:25:19.944Z,-2.23
2022-12-12T16:28:10.432Z,-2.11
2022-12-12T16:30:41.997Z,-2.07
2022-12-12T16:33:24.092Z,-2.10
2022-12-12T16:35:50.771Z,-2.12
2022-12-12T16:38:18.283Z,-2.10
2022-12-12T16:40:46.769Z,-2.06
2022-12-12T16:43:14.733Z,-2.13
2022-12-12T16:45:41.785Z,-2.05
2022-12-12T16:48:19.917Z,-2.11
2022-12-12T16:50:48.637Z,-2.10
2022-12-12T16:53:16.016Z,-2.07
2022-12-12T16:55:45.186Z,-2.12
2022-12-12T16:58:12.096Z,-2.11
2022-12-12T17:00:39.264Z,-2.08
2022-12-12T17:03:06.354Z,-2.07
2022-12-12T17:05:35.160Z,-1.97
2022-12-12T17:08:02.380Z,-1.94
2022-12-12T17:10:31.473Z,-1.96
2022-12-12T17:12:57.985Z,-2.10
2022-12-12T17:15:27.528Z,-2.07
2022-12-12T17:17:54.595Z,-2.07
2022-12-12T17:20:21.465Z,-2.05
2022-12-12T17:22:48.102Z,-2.13
2022-12-12T17:25:14.900Z,-1.97
2022-12-12T17:27:41.760Z,-1.96
2022-12-12T17:30:09.371Z,-1.97
2022-12-12T17:32:36.574Z,-2.00
2022-12-12T17:35:04.366Z,-2.05
2022-12-12T17:37:31.169Z,-2.10
2022-12-12T17:39:57.705Z,-2.04
2022-12-12T17:42:24.631Z,-2.11
2022-12-12T17:44:52.263Z,-2.16
2022-12-12T17:47:18.891Z,-2.13
2022-12-12T17:49:47.394Z,-2.17
2022-12-12T17:52:14.122Z,-2.09
2022-12-12T17:54:40.665Z,-2.08
2022-12-12T17:57:07.118Z,-1.99
2022-12-12T17:59:33.774Z,-2.15
2022-12-12T18:02:00.190Z,-2.08
2022-12-12T18:04:28.513Z,-2.16
2022-12-12T18:06:55.259Z,-2.02
2022-12-12T18:09:21.751Z,-2.14
2022-12-12T18:11:50.438Z,-2.11
2022-12-12T18:14:19.069Z,-2.16
2022-12-12T18:16:51.161Z,-2.11
2022-12-12T18:19:22.002Z,-2.02
2022-12-12T18:22:00.976Z,-2.04
2022-12-12T18:24:29.823Z,-2.10
2022-12-12T18:26:58.405Z,-2.08
2022-12-12T18:29:25.777Z,-2.04
2022-12-12T18:31:52.512Z,-2.06
2022-12-12T18:34:19.539Z,-2.01
2022-12-12T18:36:46.013Z,-2.08
2022-12-12T18:39:12.582Z,-2.08
2022-12-12T18:41:39.215Z,-2.16
2022-12-12T18:44:08.554Z,-2.07
2022-12-12T18:46:41.990Z,-2.11
2022-12-12T18:49:11.009Z,-2.10
2022-12-12T18:51:37.481Z,-2.19
2022-12-12T18:54:09.456Z,-2.31
2022-12-12T18:56:40.425Z,-2.30
2022-12-12T18:59:07.117Z,-2.23
2022-12-12T19:01:35.210Z,-2.26
2022-12-12T19:04:08.993Z,-2.22
2022-12-12T19:06:38.075Z,-2.27
2022-12-12T19:09:15.349Z,-2.23
2022-12-12T19:11:42.127Z,-2.24
2022-12-12T19:14:10.571Z,-2.25
2022-12-12T19:16:37.329Z,-2.24
2022-12-12T19:19:05.196Z,-2.32
2022-12-12T19:21:33.762Z,-2.24
2022-12-12T19:24:01.978Z,-2.26
2022-12-12T19:26:29.192Z,-2.25
2022-12-12T19:28:57.013Z,-2.22
2022-12-12T19:31:23.901Z,-2.13
2022-12-12T19:33:50.930Z,-2.18
2022-12-12T19:36:20.805Z,-2.11
2022-12-12T19:38:47.676Z,-2.09
2022-12-12T19:41:15.476Z,-2.20
2022-12-12T19:43:42.878Z,-2.23
2022-12-12T19:46:11.962Z,-2.23
2022-12-12T19:48:39.315Z,-2.18
2022-12-12T19:51:18.076Z,-2.20
2022-12-12T19:53:49.443Z,-2.11
2022-12-12T19:56:20.614Z,-2.30
2022-12-12T19:58:47.516Z,-2.29
2022-12-12T20:01:19.664Z,-2.30
2022-12-12T20:03:57.128Z,-2.18
2022-12-12T20:06:24.991Z,-2.24
2022-12-12T20:08:51.886Z,-2.35
2022-12-12T20:11:22.979Z,-2.34
2022-12-12T20:13:51.376Z,-2.32
2022-12-12T20:16:19.635Z,-2.35
2022-12-12T20:18:49.648Z,-2.30
2022-12-12T20:21:43.453Z,-2.34
2022-12-12T20:24:04.619Z,-2.24
2022-12-12T20:26:31.591Z,-2.22
2022-12-12T20:28:59.946Z,-2.18
2022-12-12T20:31:29.774Z,-2.20
2022-12-12T20:33:58.153Z,-2.22
2022-12-12T20:36:27.788Z,-2.29
2022-12-12T20:38:59.014Z,-2.21
2022-12-12T20:41:28.275Z,-2.21
2022-12-12T20:43:55.756Z,-2.24
2022-12-12T20:46:24.725Z,-2.29
2022-12-12T20:48:51.444Z,-2.31
2022-12-12T20:51:52.768Z,-2.25
2022-12-12T20:54:07.187Z,-2.26
2022-12-12T20:56:34.635Z,-2.23
2022-12-12T20:59:02.933Z,-2.19
2022-12-12T21:01:31.792Z,-2.24
2022-12-12T21:03:59.320Z,-2.09
2022-12-12T21:06:30.693Z,-2.16
2022-12-12T21:09:00.800Z,-2.08
2022-12-12T21:11:27.771Z,-2.24
2022-12-12T21:13:54.396Z,-2.22
2022-12-12T21:16:25.090Z,-2.27
2022-12-12T21:18:54.986Z,-2.17
2022-12-12T21:21:22.585Z,-2.13
2022-12-12T21:23:49.368Z,-2.18
2022-12-12T21:26:21.494Z,-2.23
2022-12-12T21:28:51.002Z,-2.22
2022-12-12T21:31:24.334Z,-2.18
2022-12-12T21:33:50.843Z,-2.28
2022-12-12T21:36:20.794Z,-2.26
2022-12-12T21:38:48.085Z,-2.19
2022-12-12T21:41:16.932Z,-2.26
2022-12-12T21:43:45.118Z,-2.22
2022-12-12T21:46:20.111Z,-2.30
2022-12-12T21:48:47.443Z,-2.26
2022-12-12T21:51:15.565Z,-2.20
2022-12-12T21:53:42.769Z,-2.28
2022-12-12T21:56:17.434Z,-2.27
2022-12-12T21:58:45.486Z,-2.35
2022-12-12T22:01:14.367Z,-2.23
2022-12-12T22:03:41.886Z,-2.23
2022-12-12T22:06:13.083Z,-2.25
2022-12-12T22:08:40.517Z,-2.34
2022-12-12T22:11:07.725Z,-2.25
2022-12-12T22:13:39.672Z,-2.30
2022-12-12T22:16:19.326Z,-2.38
2022-12-12T22:18:47.449Z,-2.38
2022-12-12T22:21:18.741Z,-2.36
2022-12-12T22:23:46.344Z,-2.32
2022-12-12T22:26:20.911Z,-2.33
2022-12-12T22:28:50.399Z,-2.27
2022-12-12T22:31:17.888Z,-2.30
2022-12-12T22:33:45.196Z,-2.24
2022-12-12T22:36:11.955Z,-2.21
2022-12-12T22:38:38.695Z,-2.11
2022-12-12T22:41:06.330Z,-2.13
2022-12-12T22:43:33.224Z,-2.15
2022-12-12T22:46:05.354Z,-2.25
2022-12-12T22:48:32.996Z,-2.21
2022-12-12T22:50:59.589Z,-2.18
2022-12-12T22:53:26.235Z,-2.22
2022-12-12T22:55:52.711Z,-2.21
2022-12-12T22:58:19.133Z,-2.19
2022-12-12T23:00:45.701Z,-2.26
2022-12-12T23:03:12.139Z,-2.23
2022-12-12T23:05:38.642Z,-2.18
2022-12-12T23:08:05.632Z,-2.23
2022-12-12T23:10:32.246Z,-2.25
2022-12-12T23:12:58.668Z,-2.27
2022-12-12T23:15:25.267Z,-2.33
2022-12-12T23:17:51.937Z,-2.21
2022-12-12T23:20:18.698Z,-2.22
2022-12-12T23:22:46.442Z,-2.16
2022-12-12T23:25:13.751Z,-2.19
2022-12-12T23:27:40.590Z,-2.16
2022-12-12T23:30:07.783Z,-2.28
2022-12-12T23:32:34.273Z,-2.23
2022-12-12T23:35:00.708Z,-2.18
2022-12-12T23:37:27.114Z,-2.08
2022-12-12T23:39:53.640Z,-2.13
2022-12-12T23:42:20.116Z,-2.11
2022-12-12T23:44:50.664Z,-2.09
2022-12-12T23:47:17.439Z,-2.11
2022-12-12T23:49:43.890Z,-2.09
2022-12-12T23:52:10.308Z,-2.14
2022-12-12T23:54:36.719Z,-2.04
2022-12-12T23:57:03.513Z,-2.06
2022-12-12T23:59:30.405Z,-2.02
